Terminal Aerodrome Forecast
Issued by NWS Wilmington, OH

Current Version | Previous Version | Graphics & Text | Print | Product List | Glossary On
Versions: 1 2 3 4 5 6 7 8 9 10 11 12 13 14 15 16 17 18 19 20 21 22 23 24 25 26 27 28 29 30 31
000
FTUS41 KILN 251247 AAA
TAFCVG
TAF AMD
KCVG 251247Z 2513/2618 29018G28KT P6SM SCT015 BKN050
     FM251400 26013G18KT P6SM SCT022 SCT250
     FM251700 25012KT P6SM SCT250
     FM252200 28005KT P6SM SKC=

USA.gov is the U.S. government's official web portal to all federal, state and local government web resources and services.